sensor_id;sensor_type;location;lat;lon;timestamp;pressure;altitude;pressure_sealevel;temperature;humidity
10510;BME280;5303;53.266;10.410;2024-02-23T00:01:49;97835.75;;;9.87;100.00
10510;BME280;5303;53.266;10.410;2024-02-23T00:03:50;97836.97;;;9.89;100.00
10510;BME280;5303;53.266;10.410;2024-02-23T00:05:50;97839.31;;;9.91;100.00
10510;BME280;5303;53.266;10.410;2024-02-23T00:07:50;97845.66;;;9.95;100.00
10510;BME280;5303;53.266;10.410;2024-02-23T00:09:51;97847.59;;;9.94;100.00
10510;BME280;5303;53.266;10.410;2024-02-23T00:11:51;97863.34;;;10.01;100.00
10510;BME280;5303;53.266;10.410;2024-02-23T00:13:51;97868.78;;;9.97;100.00
10510;BME280;5303;53.266;10.410;2024-02-23T00:15:51;97866.00;;;9.94;100.00
10510;BME280;5303;53.266;10.410;2024-02-23T00:17:52;97875.31;;;9.86;100.00
10510;BME280;5303;53.266;10.410;2024-02-23T00:19:52;97886.78;;;9.95;100.00
10510;BME280;5303;53.266;10.410;2024-02-23T00:21:53;97885.19;;;9.94;100.00
10510;BME280;5303;53.266;10.410;2024-02-23T00:23:53;97895.34;;;9.90;100.00
10510;BME280;5303;53.266;10.410;2024-02-23T00:25:54;97903.16;;;9.88;100.00
10510;BME280;5303;53.266;10.410;2024-02-23T00:27:54;97905.66;;;10.00;100.00
10510;BME280;5303;53.266;10.410;2024-02-23T00:29:54;97913.38;;;9.91;100.00
10510;BME280;5303;53.266;10.410;2024-02-23T00:31:54;97931.41;;;9.92;100.00
10510;BME280;5303;53.266;10.410;2024-02-23T00:33:55;97921.50;;;9.84;100.00
10510;BME280;5303;53.266;10.410;2024-02-23T00:35:55;97903.50;;;9.83;100.00
10510;BME280;5303;53.266;10.410;2024-02-23T00:37:55;97912.28;;;9.66;100.00
10510;BME280;5303;53.266;10.410;2024-02-23T00:39:55;97920.09;;;9.64;100.00
10510;BME280;5303;53.266;10.410;2024-02-23T00:41:56;97925.44;;;9.57;100.00
10510;BME280;5303;53.266;10.410;2024-02-23T00:43:56;97926.22;;;9.54;100.00
10510;BME280;5303;53.266;10.410;2024-02-23T00:45:56;97936.28;;;9.46;100.00
10510;BME280;5303;53.266;10.410;2024-02-23T00:47:56;97927.91;;;9.35;100.00
10510;BME280;5303;53.266;10.410;2024-02-23T00:49:57;97921.28;;;9.37;100.00
10510;BME280;5303;53.266;10.410;2024-02-23T00:51:57;97918.84;;;9.31;100.00
10510;BME280;5303;53.266;10.410;2024-02-23T00:53:57;97938.41;;;9.30;100.00
10510;BME280;5303;53.266;10.410;2024-02-23T00:55:58;97945.53;;;9.34;100.00
10510;BME280;5303;53.266;10.410;2024-02-23T00:57:58;97948.16;;;9.27;100.00
10510;BME280;5303;53.266;10.410;2024-02-23T00:59:59;97948.16;;;9.27;100.00
10510;BME280;5303;53.266;10.410;2024-02-23T01:01:59;97933.59;;;9.23;100.00
10510;BME280;5303;53.266;10.410;2024-02-23T01:03:59;97974.13;;;9.37;100.00
10510;BME280;5303;53.266;10.410;2024-02-23T01:06:00;97956.16;;;9.40;100.00
10510;BME280;5303;53.266;10.410;2024-02-23T01:08:00;97964.44;;;9.43;100.00
10510;BME280;5303;53.266;10.410;2024-02-23T01:10:01;97982.09;;;9.46;100.00
10510;BME280;5303;53.266;10.410;2024-02-23T01:12:01;97973.88;;;9.46;100.00
10510;BME280;5303;53.266;10.410;2024-02-23T01:14:01;98001.28;;;9.46;100.00
10510;BME280;5303;53.266;10.410;2024-02-23T01:16:02;97983.63;;;9.43;99.90
10510;BME280;5303;53.266;10.410;2024-02-23T01:18:03;97977.34;;;9.43;100.00
10510;BME280;5303;53.266;10.410;2024-02-23T01:20:04;97999.41;;;9.27;100.00
10510;BME280;5303;53.266;10.410;2024-02-23T01:22:05;97986.25;;;9.36;98.32
10510;BME280;5303;53.266;10.410;2024-02-23T01:24:05;97984.19;;;9.29;98.73
10510;BME280;5303;53.266;10.410;2024-02-23T01:26:05;97990.50;;;9.33;96.50
10510;BME280;5303;53.266;10.410;2024-02-23T01:28:06;98005.06;;;9.38;95.33
10510;BME280;5303;53.266;10.410;2024-02-23T01:30:06;98005.84;;;9.38;96.78
10510;BME280;5303;53.266;10.410;2024-02-23T01:32:07;98017.53;;;9.35;98.94
10510;BME280;5303;53.266;10.410;2024-02-23T01:34:07;98030.81;;;9.33;100.00
10510;BME280;5303;53.266;10.410;2024-02-23T01:36:07;98058.22;;;9.33;100.00
10510;BME280;5303;53.266;10.410;2024-02-23T01:38:08;98075.47;;;9.33;100.00
10510;BME280;5303;53.266;10.410;2024-02-23T01:40:08;98110.59;;;9.51;98.83
10510;BME280;5303;53.266;10.410;2024-02-23T01:42:08;98109.94;;;9.34;100.00
10510;BME280;5303;53.266;10.410;2024-02-23T01:44:10;98135.94;;;9.02;100.00
10510;BME280;5303;53.266;10.410;2024-02-23T01:46:11;98134.38;;;8.63;100.00
10510;BME280;5303;53.266;10.410;2024-02-23T01:48:11;98147.47;;;8.35;100.00
10510;BME280;5303;53.266;10.410;2024-02-23T01:50:12;98135.91;;;8.26;100.00
10510;BME280;5303;53.266;10.410;2024-02-23T01:52:13;98146.06;;;8.10;100.00
10510;BME280;5303;53.266;10.410;2024-02-23T01:54:15;98158.06;;;8.05;100.00
10510;BME280;5303;53.266;10.410;2024-02-23T01:56:16;98167.25;;;7.97;100.00
10510;BME280;5303;53.266;10.410;2024-02-23T01:58:20;98187.53;;;7.80;100.00
10510;BME280;5303;53.266;10.410;2024-02-23T02:00:21;98191.09;;;7.81;100.00
10510;BME280;5303;53.266;10.410;2024-02-23T02:02:21;98203.50;;;7.78;100.00
10510;BME280;5303;53.266;10.410;2024-02-23T02:04:21;98207.66;;;7.72;100.00
10510;BME280;5303;53.266;10.410;2024-02-23T02:06:22;98220.19;;;7.73;100.00
10510;BME280;5303;53.266;10.410;2024-02-23T02:08:22;98225.19;;;7.71;100.00
10510;BME280;5303;53.266;10.410;2024-02-23T02:10:25;98231.38;;;7.68;100.00
10510;BME280;5303;53.266;10.410;2024-02-23T02:12:27;98238.25;;;7.62;100.00
10510;BME280;5303;53.266;10.410;2024-02-23T02:14:27;98247.56;;;7.61;100.00
10510;BME280;5303;53.266;10.410;2024-02-23T02:16:31;98262.22;;;7.53;100.00
10510;BME280;5303;53.266;10.410;2024-02-23T02:18:31;98261.31;;;7.49;100.00
10510;BME280;5303;53.266;10.410;2024-02-23T02:20:32;98254.03;;;7.53;100.00
10510;BME280;5303;53.266;10.410;2024-02-23T02:22:33;98260.00;;;7.43;100.00
10510;BME280;5303;53.266;10.410;2024-02-23T02:24:33;98261.72;;;7.35;100.00
10510;BME280;5303;53.266;10.410;2024-02-23T02:26:36;98274.22;;;7.36;100.00
10510;BME280;5303;53.266;10.410;2024-02-23T02:28:37;98270.72;;;7.36;100.00
10510;BME280;5303;53.266;10.410;2024-02-23T02:30:38;98274.16;;;7.33;100.00
10510;BME280;5303;53.266;10.410;2024-02-23T02:32:38;98276.00;;;7.29;100.00
10510;BME280;5303;53.266;10.410;2024-02-23T02:34:38;98283.94;;;7.22;100.00
10510;BME280;5303;53.266;10.410;2024-02-23T02:36:38;98286.28;;;7.08;100.00
10510;BME280;5303;53.266;10.410;2024-02-23T02:38:39;98303.03;;;7.06;100.00
10510;BME280;5303;53.266;10.410;2024-02-23T02:40:39;98306.75;;;7.14;100.00
10510;BME280;5303;53.266;10.410;2024-02-23T02:42:39;98302.22;;;7.06;100.00
10510;BME280;5303;53.266;10.410;2024-02-23T02:44:40;98321.34;;;7.06;100.00
10510;BME280;5303;53.266;10.410;2024-02-23T02:46:41;98347.72;;;7.14;100.00
10510;BME280;5303;53.266;10.410;2024-02-23T02:48:41;98373.44;;;7.13;100.00
10510;BME280;5303;53.266;10.410;2024-02-23T02:50:42;98392.66;;;7.16;100.00
10510;BME280;5303;53.266;10.410;2024-02-23T02:52:42;98394.50;;;7.00;100.00
10510;BME280;5303;53.266;10.410;2024-02-23T02:54:42;98391.97;;;6.95;100.00
10510;BME280;5303;53.266;10.410;2024-02-23T02:56:43;98395.06;;;6.94;100.00
10510;BME280;5303;53.266;10.410;2024-02-23T02:58:43;98420.44;;;6.82;100.00
10510;BME280;5303;53.266;10.410;2024-02-23T03:00:44;98427.47;;;6.71;100.00
10510;BME280;5303;53.266;10.410;2024-02-23T03:02:45;98436.47;;;6.72;100.00
10510;BME280;5303;53.266;10.410;2024-02-23T03:04:49;98434.66;;;6.63;100.00
10510;BME280;5303;53.266;10.410;2024-02-23T03:06:49;98440.56;;;6.65;100.00
10510;BME280;5303;53.266;10.410;2024-02-23T03:08:50;98429.50;;;6.62;100.00
10510;BME280;5303;53.266;10.410;2024-02-23T03:10:50;98441.22;;;6.62;100.00
10510;BME280;5303;53.266;10.410;2024-02-23T03:12:50;98444.84;;;6.54;100.00
10510;BME280;5303;53.266;10.410;2024-02-23T03:14:50;98448.81;;;6.45;100.00
10510;BME280;5303;53.266;10.410;2024-02-23T03:16:51;98454.06;;;6.50;100.00
10510;BME280;5303;53.266;10.410;2024-02-23T03:18:51;98460.16;;;6.47;100.00
10510;BME280;5303;53.266;10.410;2024-02-23T03:20:52;98461.50;;;6.29;100.00
10510;BME280;5303;53.266;10.410;2024-02-23T03:22:52;98468.06;;;6.28;100.00
10510;BME280;5303;53.266;10.410;2024-02-23T03:24:52;98476.88;;;6.45;100.00
10510;BME280;5303;53.266;10.410;2024-02-23T03:26:53;98478.00;;;6.44;100.00
10510;BME280;5303;53.266;10.410;2024-02-23T03:28:53;98479.38;;;6.38;100.00
10510;BME280;5303;53.266;10.410;2024-02-23T03:30:54;98487.09;;;6.36;100.00
10510;BME280;5303;53.266;10.410;2024-02-23T03:32:54;98484.44;;;6.28;100.00
10510;BME280;5303;53.266;10.410;2024-02-23T03:34:54;98490.91;;;6.23;100.00
10510;BME280;5303;53.266;10.410;2024-02-23T03:36:54;98496.03;;;6.25;100.00
10510;BME280;5303;53.266;10.410;2024-02-23T03:38:55;98506.25;;;6.28;100.00
10510;BME280;5303;53.266;10.410;2024-02-23T03:40:55;98504.00;;;6.30;100.00
10510;BME280;5303;53.266;10.410;2024-02-23T03:42:56;98509.34;;;6.26;100.00
10510;BME280;5303;53.266;10.410;2024-02-23T03:44:56;98525.91;;;6.21;100.00
10510;BME280;5303;53.266;10.410;2024-02-23T03:46:56;98527.03;;;6.20;100.00
10510;BME280;5303;53.266;10.410;2024-02-23T03:48:56;98530.81;;;6.28;100.00
10510;BME280;5303;53.266;10.410;2024-02-23T03:50:58;98530.91;;;6.19;100.00
10510;BME280;5303;53.266;10.410;2024-02-23T03:52:58;98534.50;;;6.11;100.00
10510;BME280;5303;53.266;10.410;2024-02-23T03:54:58;98543.94;;;6.14;100.00
10510;BME280;5303;53.266;10.410;2024-02-23T03:56:58;98545.75;;;6.10;100.00
10510;BME280;5303;53.266;10.410;2024-02-23T03:58:59;98541.59;;;6.03;100.00
10510;BME280;5303;53.266;10.410;2024-02-23T04:00:59;98549.94;;;6.07;100.00
10510;BME280;5303;53.266;10.410;2024-02-23T04:02:59;98548.31;;;6.06;100.00
10510;BME280;5303;53.266;10.410;2024-02-23T04:04:59;98545.78;;;6.01;100.00
10510;BME280;5303;53.266;10.410;2024-02-23T04:07:00;98561.50;;;6.04;100.00
10510;BME280;5303;53.266;10.410;2024-02-23T04:09:00;98562.63;;;6.03;100.00
10510;BME280;5303;53.266;10.410;2024-02-23T04:11:00;98571.47;;;6.00;100.00
10510;BME280;5303;53.266;10.410;2024-02-23T04:13:01;98578.91;;;5.91;100.00
10510;BME280;5303;53.266;10.410;2024-02-23T04:15:01;98583.19;;;6.00;100.00
10510;BME280;5303;53.266;10.410;2024-02-23T04:17:04;98569.59;;;5.92;100.00
10510;BME280;5303;53.266;10.410;2024-02-23T04:19:04;98582.22;;;5.96;100.00
10510;BME280;5303;53.266;10.410;2024-02-23T04:21:05;98594.94;;;5.84;100.00
10510;BME280;5303;53.266;10.410;2024-02-23T04:23:05;98591.13;;;5.85;100.00
10510;BME280;5303;53.266;10.410;2024-02-23T04:25:05;98600.13;;;5.77;100.00
10510;BME280;5303;53.266;10.410;2024-02-23T04:27:07;98604.91;;;5.80;100.00
10510;BME280;5303;53.266;10.410;2024-02-23T04:29:07;98604.91;;;5.80;100.00
10510;BME280;5303;53.266;10.410;2024-02-23T04:31:08;98610.25;;;5.76;100.00
10510;BME280;5303;53.266;10.410;2024-02-23T04:33:09;98607.31;;;5.81;100.00
10510;BME280;5303;53.266;10.410;2024-02-23T04:35:10;98613.28;;;5.75;100.00
10510;BME280;5303;53.266;10.410;2024-02-23T04:37:10;98608.00;;;5.70;100.00
10510;BME280;5303;53.266;10.410;2024-02-23T04:39:10;98611.25;;;5.63;100.00
10510;BME280;5303;53.266;10.410;2024-02-23T04:41:10;98617.22;;;5.57;100.00
10510;BME280;5303;53.266;10.410;2024-02-23T04:43:11;98606.81;;;5.59;100.00
10510;BME280;5303;53.266;10.410;2024-02-23T04:45:11;98612.38;;;5.62;100.00
10510;BME280;5303;53.266;10.410;2024-02-23T04:47:12;98622.69;;;5.57;100.00
10510;BME280;5303;53.266;10.410;2024-02-23T04:49:12;98641.06;;;5.60;100.00
10510;BME280;5303;53.266;10.410;2024-02-23T04:51:12;98634.69;;;5.56;100.00
10510;BME280;5303;53.266;10.410;2024-02-23T04:53:12;98637.69;;;5.63;100.00
10510;BME280;5303;53.266;10.410;2024-02-23T04:55:13;98638.34;;;5.60;100.00
10510;BME280;5303;53.266;10.410;2024-02-23T04:57:13;98651.50;;;5.58;100.00
10510;BME280;5303;53.266;10.410;2024-02-23T04:59:13;98645.13;;;5.54;100.00
10510;BME280;5303;53.266;10.410;2024-02-23T05:01:14;98652.03;;;5.51;100.00
10510;BME280;5303;53.266;10.410;2024-02-23T05:03:15;98648.84;;;5.49;100.00
10510;BME280;5303;53.266;10.410;2024-02-23T05:05:16;98654.41;;;5.53;100.00
10510;BME280;5303;53.266;10.410;2024-02-23T05:07:16;98649.63;;;5.50;100.00
10510;BME280;5303;53.266;10.410;2024-02-23T05:09:16;98658.91;;;5.49;100.00
10510;BME280;5303;53.266;10.410;2024-02-23T05:11:16;98658.44;;;5.47;100.00
10510;BME280;5303;53.266;10.410;2024-02-23T05:13:17;98669.53;;;5.42;100.00
10510;BME280;5303;53.266;10.410;2024-02-23T05:15:17;98666.63;;;5.47;100.00
10510;BME280;5303;53.266;10.410;2024-02-23T05:17:17;98664.84;;;5.51;100.00
10510;BME280;5303;53.266;10.410;2024-02-23T05:19:18;98668.38;;;5.43;100.00
10510;BME280;5303;53.266;10.410;2024-02-23T05:21:18;98677.53;;;5.47;100.00
10510;BME280;5303;53.266;10.410;2024-02-23T05:23:18;98680.56;;;5.45;100.00
10510;BME280;5303;53.266;10.410;2024-02-23T05:25:19;98684.72;;;5.51;100.00
10510;BME280;5303;53.266;10.410;2024-02-23T05:27:19;98691.13;;;5.47;100.00
10510;BME280;5303;53.266;10.410;2024-02-23T05:29:19;98701.69;;;5.48;100.00
10510;BME280;5303;53.266;10.410;2024-02-23T05:31:45;98707.00;;;5.45;100.00
10510;BME280;5303;53.266;10.410;2024-02-23T05:33:46;98704.75;;;5.47;100.00
10510;BME280;5303;53.266;10.410;2024-02-23T05:35:47;98713.41;;;5.49;100.00
10510;BME280;5303;53.266;10.410;2024-02-23T05:37:50;98718.22;;;5.52;100.00
10510;BME280;5303;53.266;10.410;2024-02-23T05:39:50;98724.13;;;5.54;100.00
10510;BME280;5303;53.266;10.410;2024-02-23T05:41:50;98728.09;;;5.65;100.00
10510;BME280;5303;53.266;10.410;2024-02-23T05:43:51;98735.31;;;5.61;100.00
10510;BME280;5303;53.266;10.410;2024-02-23T05:45:51;98733.34;;;5.70;100.00
10510;BME280;5303;53.266;10.410;2024-02-23T05:47:51;98730.97;;;5.60;100.00
10510;BME280;5303;53.266;10.410;2024-02-23T05:49:52;98737.72;;;5.62;100.00
10510;BME280;5303;53.266;10.410;2024-02-23T05:51:52;98745.16;;;5.45;100.00
10510;BME280;5303;53.266;10.410;2024-02-23T05:53:52;98744.34;;;5.44;100.00
10510;BME280;5303;53.266;10.410;2024-02-23T05:55:52;98757.78;;;5.41;100.00
10510;BME280;5303;53.266;10.410;2024-02-23T05:57:53;98759.88;;;5.44;100.00
10510;BME280;5303;53.266;10.410;2024-02-23T05:59:53;98761.66;;;5.40;100.00
10510;BME280;5303;53.266;10.410;2024-02-23T06:01:55;98758.63;;;5.32;100.00
10510;BME280;5303;53.266;10.410;2024-02-23T06:03:58;98765.81;;;5.37;100.00
10510;BME280;5303;53.266;10.410;2024-02-23T06:05:58;98770.31;;;5.42;100.00
10510;BME280;5303;53.266;10.410;2024-02-23T06:07:59;98777.84;;;5.45;100.00
10510;BME280;5303;53.266;10.410;2024-02-23T06:10:00;98779.88;;;5.48;100.00
10510;BME280;5303;53.266;10.410;2024-02-23T06:12:00;98786.78;;;5.45;100.00
10510;BME280;5303;53.266;10.410;2024-02-23T06:14:01;98795.75;;;5.46;100.00
10510;BME280;5303;53.266;10.410;2024-02-23T06:16:01;98792.72;;;5.47;100.00
10510;BME280;5303;53.266;10.410;2024-02-23T06:18:01;98794.94;;;5.54;100.00
10510;BME280;5303;53.266;10.410;2024-02-23T06:20:02;98801.38;;;5.49;100.00
10510;BME280;5303;53.266;10.410;2024-02-23T06:22:03;98805.53;;;5.47;100.00
10510;BME280;5303;53.266;10.410;2024-02-23T06:24:03;98811.47;;;5.49;100.00
10510;BME280;5303;53.266;10.410;2024-02-23T06:26:04;98816.44;;;5.47;100.00
10510;BME280;5303;53.266;10.410;2024-02-23T06:28:05;98823.16;;;5.49;100.00
10510;BME280;5303;53.266;10.410;2024-02-23T06:30:07;98821.56;;;5.48;100.00
10510;BME280;5303;53.266;10.410;2024-02-23T06:32:07;98819.97;;;5.38;100.00
10510;BME280;5303;53.266;10.410;2024-02-23T06:34:08;98820.94;;;5.34;100.00
10510;BME280;5303;53.266;10.410;2024-02-23T06:36:09;98831.34;;;5.23;100.00
10510;BME280;5303;53.266;10.410;2024-02-23T06:38:09;98832.16;;;5.24;100.00
10510;BME280;5303;53.266;10.410;2024-02-23T06:40:10;98830.72;;;5.18;100.00
10510;BME280;5303;53.266;10.410;2024-02-23T06:42:10;98843.03;;;5.15;100.00
10510;BME280;5303;53.266;10.410;2024-02-23T06:44:10;98827.50;;;5.24;100.00
10510;BME280;5303;53.266;10.410;2024-02-23T06:46:11;98842.72;;;5.17;100.00
10510;BME280;5303;53.266;10.410;2024-02-23T06:48:11;98835.66;;;5.07;100.00
10510;BME280;5303;53.266;10.410;2024-02-23T06:50:11;98837.13;;;5.22;100.00
10510;BME280;5303;53.266;10.410;2024-02-23T06:52:12;98834.56;;;5.25;100.00
10510;BME280;5303;53.266;10.410;2024-02-23T06:54:12;98847.34;;;5.16;100.00
10510;BME280;5303;53.266;10.410;2024-02-23T06:56:12;98843.69;;;5.12;100.00
10510;BME280;5303;53.266;10.410;2024-02-23T06:58:13;98845.59;;;5.12;100.00
10510;BME280;5303;53.266;10.410;2024-02-23T07:00:15;98841.44;;;5.14;100.00
10510;BME280;5303;53.266;10.410;2024-02-23T07:02:15;98851.03;;;5.12;100.00
10510;BME280;5303;53.266;10.410;2024-02-23T07:04:16;98857.13;;;5.09;100.00
10510;BME280;5303;53.266;10.410;2024-02-23T07:06:16;98862.09;;;5.15;100.00
10510;BME280;5303;53.266;10.410;2024-02-23T07:08:18;98869.63;;;5.18;100.00
10510;BME280;5303;53.266;10.410;2024-02-23T07:10:18;98873.47;;;5.26;100.00
10510;BME280;5303;53.266;10.410;2024-02-23T07:12:20;98874.44;;;5.38;100.00
10510;BME280;5303;53.266;10.410;2024-02-23T07:14:20;98883.09;;;5.32;100.00
10510;BME280;5303;53.266;10.410;2024-02-23T07:16:22;98873.16;;;5.36;100.00
10510;BME280;5303;53.266;10.410;2024-02-23T07:18:22;98885.66;;;5.46;100.00
10510;BME280;5303;53.266;10.410;2024-02-23T07:20:22;98893.19;;;5.49;100.00
10510;BME280;5303;53.266;10.410;2024-02-23T07:22:22;98895.59;;;5.42;100.00
10510;BME280;5303;53.266;10.410;2024-02-23T07:24:23;98891.91;;;5.38;100.00
10510;BME280;5303;53.266;10.410;2024-02-23T07:26:23;98900.88;;;5.47;100.00
10510;BME280;5303;53.266;10.410;2024-02-23T07:28:23;98899.13;;;5.42;100.00
10510;BME280;5303;53.266;10.410;2024-02-23T07:30:24;98898.31;;;5.42;100.00
10510;BME280;5303;53.266;10.410;2024-02-23T07:32:24;98906.78;;;5.57;100.00
10510;BME280;5303;53.266;10.410;2024-02-23T07:34:25;98909.19;;;5.67;100.00
10510;BME280;5303;53.266;10.410;2024-02-23T07:36:25;98909.66;;;5.69;100.00
10510;BME280;5303;53.266;10.410;2024-02-23T07:38:25;98911.78;;;5.64;100.00
10510;BME280;5303;53.266;10.410;2024-02-23T07:40:26;98916.75;;;5.62;100.00
10510;BME280;5303;53.266;10.410;2024-02-23T07:42:26;98921.06;;;5.63;100.00
10510;BME280;5303;53.266;10.410;2024-02-23T07:44:27;98918.50;;;5.75;100.00
10510;BME280;5303;53.266;10.410;2024-02-23T07:46:27;98914.19;;;5.91;100.00
10510;BME280;5303;53.266;10.410;2024-02-23T07:48:27;98919.16;;;5.89;100.00
10510;BME280;5303;53.266;10.410;2024-02-23T07:50:28;98921.25;;;6.00;100.00
10510;BME280;5303;53.266;10.410;2024-02-23T07:52:28;98925.25;;;6.03;100.00
10510;BME280;5303;53.266;10.410;2024-02-23T07:54:29;98930.69;;;6.03;100.00
10510;BME280;5303;53.266;10.410;2024-02-23T07:56:29;98921.38;;;6.04;100.00
10510;BME280;5303;53.266;10.410;2024-02-23T07:58:30;98928.91;;;6.07;100.00
10510;BME280;5303;53.266;10.410;2024-02-23T08:00:30;98926.19;;;6.07;100.00
10510;BME280;5303;53.266;10.410;2024-02-23T08:02:31;98934.22;;;6.12;100.00
10510;BME280;5303;53.266;10.410;2024-02-23T08:04:31;98933.91;;;6.05;100.00
10510;BME280;5303;53.266;10.410;2024-02-23T08:06:31;98943.97;;;6.13;100.00
10510;BME280;5303;53.266;10.410;2024-02-23T08:08:31;98943.81;;;6.18;100.00
10510;BME280;5303;53.266;10.410;2024-02-23T08:10:34;98944.78;;;6.22;100.00
10510;BME280;5303;53.266;10.410;2024-02-23T08:12:35;98941.69;;;6.32;100.00
10510;BME280;5303;53.266;10.410;2024-02-23T08:14:35;98942.34;;;6.29;100.00
10510;BME280;5303;53.266;10.410;2024-02-23T08:16:35;98955.69;;;6.22;100.00
10510;BME280;5303;53.266;10.410;2024-02-23T08:18:36;98939.91;;;6.36;100.00
10510;BME280;5303;53.266;10.410;2024-02-23T08:20:36;98942.94;;;6.43;100.00
10510;BME280;5303;53.266;10.410;2024-02-23T08:22:37;98954.50;;;6.40;100.00
10510;BME280;5303;53.266;10.410;2024-02-23T08:24:37;98954.16;;;6.42;100.00
10510;BME280;5303;53.266;10.410;2024-02-23T08:26:37;98960.91;;;6.44;100.00
10510;BME280;5303;53.266;10.410;2024-02-23T08:28:38;98961.41;;;6.46;100.00
10510;BME280;5303;53.266;10.410;2024-02-23T08:30:38;98958.34;;;6.48;100.00
10510;BME280;5303;53.266;10.410;2024-02-23T08:32:39;98963.16;;;6.42;100.00
10510;BME280;5303;53.266;10.410;2024-02-23T08:34:39;98971.66;;;6.49;100.00
10510;BME280;5303;53.266;10.410;2024-02-23T08:36:40;98973.91;;;6.47;100.00
10510;BME280;5303;53.266;10.410;2024-02-23T08:38:40;98979.81;;;6.49;100.00
10510;BME280;5303;53.266;10.410;2024-02-23T08:40:40;98987.38;;;6.61;100.00
10510;BME280;5303;53.266;10.410;2024-02-23T08:42:42;98982.84;;;6.56;100.00
10510;BME280;5303;53.266;10.410;2024-02-23T08:44:42;98992.59;;;6.75;100.00
10510;BME280;5303;53.266;10.410;2024-02-23T08:46:42;98991.59;;;6.88;100.00
10510;BME280;5303;53.266;10.410;2024-02-23T08:48:43;99003.13;;;7.02;100.00
10510;BME280;5303;53.266;10.410;2024-02-23T08:50:44;98997.78;;;7.05;100.00
10510;BME280;5303;53.266;10.410;2024-02-23T08:52:44;98991.31;;;7.10;100.00
10510;BME280;5303;53.266;10.410;2024-02-23T08:54:44;98996.56;;;7.23;100.00
10510;BME280;5303;53.266;10.410;2024-02-23T08:56:44;99007.03;;;7.21;100.00
10510;BME280;5303;53.266;10.410;2024-02-23T08:58:45;99010.19;;;7.32;100.00
10510;BME280;5303;53.266;10.410;2024-02-23T09:00:45;99015.50;;;7.28;100.00
10510;BME280;5303;53.266;10.410;2024-02-23T09:02:45;99019.28;;;7.45;100.00
10510;BME280;5303;53.266;10.410;2024-02-23T09:04:46;99015.88;;;7.48;100.00
10510;BME280;5303;53.266;10.410;2024-02-23T09:06:46;99022.81;;;7.45;100.00
10510;BME280;5303;53.266;10.410;2024-02-23T09:08:46;99026.00;;;7.47;100.00
10510;BME280;5303;53.266;10.410;2024-02-23T09:10:46;99022.94;;;7.49;100.00
10510;BME280;5303;53.266;10.410;2024-02-23T09:12:47;99015.72;;;7.44;100.00
10510;BME280;5303;53.266;10.410;2024-02-23T09:14:47;99034.03;;;7.52;100.00
10510;BME280;5303;53.266;10.410;2024-02-23T09:16:48;99025.94;;;7.56;100.00
10510;BME280;5303;53.266;10.410;2024-02-23T09:18:51;99032.47;;;7.72;100.00
10510;BME280;5303;53.266;10.410;2024-02-23T09:20:51;99027.25;;;7.79;100.00
10510;BME280;5303;53.266;10.410;2024-02-23T09:22:51;99043.13;;;7.85;100.00
10510;BME280;5303;53.266;10.410;2024-02-23T09:24:52;99049.13;;;7.79;100.00
10510;BME280;5303;53.266;10.410;2024-02-23T09:26:52;99038.13;;;7.87;100.00
10510;BME280;5303;53.266;10.410;2024-02-23T09:28:53;99042.94;;;7.90;100.00
10510;BME280;5303;53.266;10.410;2024-02-23T09:30:53;99039.28;;;7.86;100.00
10510;BME280;5303;53.266;10.410;2024-02-23T09:32:53;99039.53;;;7.93;100.00
10510;BME280;5303;53.266;10.410;2024-02-23T09:34:54;99046.41;;;7.99;100.00
10510;BME280;5303;53.266;10.410;2024-02-23T09:36:55;99051.41;;;7.97;100.00
10510;BME280;5303;53.266;10.410;2024-02-23T09:38:56;99048.56;;;7.94;100.00
10510;BME280;5303;53.266;10.410;2024-02-23T09:40:56;99054.81;;;7.94;100.00
10510;BME280;5303;53.266;10.410;2024-02-23T09:42:58;99061.75;;;7.92;100.00
10510;BME280;5303;53.266;10.410;2024-02-23T09:44:59;99047.88;;;7.97;100.00
10510;BME280;5303;53.266;10.410;2024-02-23T09:47:01;99049.56;;;7.89;100.00
10510;BME280;5303;53.266;10.410;2024-02-23T09:49:08;99061.16;;;7.86;100.00
10510;BME280;5303;53.266;10.410;2024-02-23T09:51:15;99071.09;;;7.91;100.00
10510;BME280;5303;53.266;10.410;2024-02-23T09:53:16;99066.25;;;7.96;100.00
10510;BME280;5303;53.266;10.410;2024-02-23T09:55:18;99077.84;;;7.93;100.00
10510;BME280;5303;53.266;10.410;2024-02-23T09:57:21;99092.63;;;7.92;100.00
10510;BME280;5303;53.266;10.410;2024-02-23T09:59:22;99100.53;;;7.94;100.00
10510;BME280;5303;53.266;10.410;2024-02-23T10:01:27;99095.81;;;7.94;100.00
10510;BME280;5303;53.266;10.410;2024-02-23T10:03:29;99110.47;;;7.98;100.00
10510;BME280;5303;53.266;10.410;2024-02-23T10:05:31;99105.72;;;8.08;100.00
10510;BME280;5303;53.266;10.410;2024-02-23T10:07:34;99111.00;;;8.13;100.00
10510;BME280;5303;53.266;10.410;2024-02-23T10:09:35;99128.16;;;8.22;100.00
10510;BME280;5303;53.266;10.410;2024-02-23T10:11:35;99116.94;;;8.15;100.00
10510;BME280;5303;53.266;10.410;2024-02-23T10:13:35;99129.53;;;8.07;100.00
10510;BME280;5303;53.266;10.410;2024-02-23T10:15:36;99133.47;;;8.27;100.00
10510;BME280;5303;53.266;10.410;2024-02-23T10:17:36;99127.50;;;8.25;100.00
10510;BME280;5303;53.266;10.410;2024-02-23T10:19:36;99128.91;;;8.31;100.00
10510;BME280;5303;53.266;10.410;2024-02-23T10:21:37;99132.59;;;8.35;100.00
10510;BME280;5303;53.266;10.410;2024-02-23T10:23:38;99138.28;;;8.30;100.00
10510;BME280;5303;53.266;10.410;2024-02-23T10:25:38;99142.41;;;8.36;100.00
10510;BME280;5303;53.266;10.410;2024-02-23T10:27:42;99136.41;;;8.42;98.87
10510;BME280;5303;53.266;10.410;2024-02-23T10:29:43;99137.69;;;8.45;99.49
10510;BME280;5303;53.266;10.410;2024-02-23T10:31:46;99145.72;;;8.50;98.23
10510;BME280;5303;53.266;10.410;2024-02-23T10:33:50;99138.22;;;8.59;94.50
10510;BME280;5303;53.266;10.410;2024-02-23T10:35:56;99141.66;;;8.68;95.09
10510;BME280;5303;53.266;10.410;2024-02-23T10:37:59;99140.41;;;8.65;95.13
10510;BME280;5303;53.266;10.410;2024-02-23T10:40:01;99154.09;;;8.65;91.10